Flight Track Log - Related Links

Times and Time Zones

All times are in EDT time to prevent confusion due to time zone crossing. See the SKW5550 flight status page for this flight to view local times or setup timezone preferences in your user account.

Time Position Orientation Groundspeed Altitude Reporting Facility
EDT Latitude Longitude Course Direction KTS MPH feet Rate Location/Type
Sun 05:06:18 PM 39.7833 -104.6667 201° Southwest 203 234 7,700  Level Denver TRACON
Sun 05:07:18 PM 39.7167 -104.7000 201° Southwest 258 297 8,700 1,731 Climbing Denver TRACON
Sun 05:08:02 PM 39.7047 -104.7689 257° West 281 323 10,700 2,321 Climbing Denver Center
Sun 05:09:04 PM 39.7358 -104.8686 292° West 295 339 12,800 2,129 Climbing Denver Center
Sun 05:10:06 PM 39.7647 -104.9703 290° West 299 344 15,100 1,984 Climbing Denver Center
Sun 05:11:08 PM 39.7978 -105.0794 292° West 303 349 16,900 1,645 Climbing Denver Center
Sun 05:12:10 PM 39.8278 -105.1836 291° West 310 357 18,500 1,500 Climbing Denver Center
Sun 05:13:12 PM 39.8622 -105.2986 291° West 316 364 20,000 1,500 Climbing Denver Center
Sun 05:14:14 PM 39.8936 -105.4058 291° West 315 362 21,600 1,452 Climbing Denver Center
Sun 05:15:16 PM 39.9269 -105.5131 292° West 318 366 23,000 1,161 Climbing Denver Center
Sun 05:16:18 PM 39.9606 -105.6308 290° West 324 373 24,000 919 Climbing Denver Center
Sun 05:17:20 PM 39.9714 -105.7428 277° West 319 367 24,900 823 Climbing Denver Center
Sun 05:18:22 PM 39.9783 -105.8550 275° West 312 359 25,700 774 Climbing Denver Center
Sun 05:19:24 PM 39.9953 -105.9722 281° West 326 375 26,500 823 Climbing Denver Center
Sun 05:20:26 PM 40.0128 -106.0908 281° West 332 382 27,400 919 Climbing Denver Center
Sun 05:21:28 PM 40.0328 -106.2347 280° West 338 389 28,400 871 Climbing Denver Center
Sun 05:22:30 PM 40.0475 -106.3550 279° West 336 387 29,200 774 Climbing Denver Center
Sun 05:23:32 PM 40.0647 -106.4742 281° West 336 387 30,000 581 Climbing Denver Center
Sun 05:24:34 PM 40.0831 -106.6094 280° West 342 394 30,400 484 Climbing Denver Center
Sun 05:25:36 PM 40.0983 -106.7269 280° West 344 396 31,000 532 Climbing Denver Center
Sun 05:26:38 PM 40.1156 -106.8642 279° West 345 397 31,500 480 Climbing Denver Center
Sun 05:27:41 PM 40.1328 -106.9847 281° West 351 404 32,000 240 Climbing Denver Center
Sun 05:28:43 PM 40.1514 -107.1258 280° West 353 406 32,000  Level Denver Center
Sun 05:29:45 PM 40.1661 -107.2464 279° West 352 405 32,000  Level Denver Center
Sun 05:30:47 PM 40.1814 -107.3669 279° West 352 405 32,000  Level Denver Center
Sun 05:31:49 PM 40.2000 -107.5056 280° West 347 399 32,000  Level Denver Center
Sun 05:32:51 PM 40.2147 -107.6253 279° West 350 403 32,000  Level Denver Center
Sun 05:33:53 PM 40.2314 -107.7631 279° West 345 397 32,000  Level Denver Center
Sun 05:34:55 PM 40.2458 -107.8811 279° West 344 396 32,000  Level Denver Center
Sun 05:35:57 PM 40.2625 -108.0181 279° West 344 396 32,000  Level Denver Center
Sun 05:36:59 PM 40.2769 -108.1339 279° West 341 392 32,000  Level Denver Center
Sun 05:38:01 PM 40.2933 -108.2719 279° West 342 394 32,000  Level Denver Center
Sun 05:39:03 PM 40.3069 -108.3864 279° West 337 388 32,000  Level Denver Center
Sun 05:40:05 PM 40.3228 -108.5203 279° West 335 386 32,000  Level Denver Center
Sun 05:41:07 PM 40.3369 -108.6389 279° West 339 390 32,000  Level Denver Center
Sun 05:42:09 PM 40.3522 -108.7775 278° West 345 397 32,000  Level Denver Center
Sun 05:43:11 PM 40.3658 -108.8964 279° West 347 399 32,000  Level Denver Center
Sun 05:44:13 PM 40.3814 -109.0364 278° West 348 400 32,000  Level Denver Center
Sun 05:45:15 PM 40.3950 -109.1558 279° West 348 400 32,000  Level Denver Center
Sun 05:46:17 PM 40.4097 -109.2942 278° West 345 397 32,000  Level Denver Center
Sun 05:47:19 PM 40.4233 -109.4139 279° West 346 398 32,000  Level Denver Center
Sun 05:48:21 PM 40.4389 -109.5528 278° West 347 399 32,000  Level Denver Center
Sun 05:49:31 PM 40.4531 -109.6931 278° West 347 399 32,000  Level Salt Lake Center
Sun 05:50:33 PM 40.4683 -109.8344 278° West 350 403 32,000  Level Salt Lake Center
Sun 05:51:35 PM 40.4808 -109.9567 278° West 352 405 32,000  Level Salt Lake Center
Sun 05:52:37 PM 40.4933 -110.0792 278° West 354 407 32,000  Level Salt Lake Center
Sun 05:53:39 PM 40.5083 -110.2217 278° West 353 406 32,000  Level Salt Lake Center
Sun 05:54:41 PM 40.5211 -110.3456 278° West 358 412 32,000  Level Salt Lake Center
Sun 05:55:43 PM 40.5350 -110.4889 277° West 355 409 32,000  Level Salt Lake Center
Sun 05:56:45 PM 40.5464 -110.6036 277° West 356 410 32,000  Level Salt Lake Center
Sun 05:57:46 PM 40.5619 -110.7603 277° West 360 414 32,000  Level Salt Lake Center
Sun 05:58:48 PM 40.5747 -110.8919 277° West 362 417 32,000  Level Salt Lake Center
Sun 05:59:50 PM 40.5881 -111.0253 278° West 366 421 32,000  Level Salt Lake Center
Sun 06:00:52 PM 40.6000 -111.1589 277° West 368 423 32,000  Level Salt Lake Center
Sun 06:01:54 PM 40.6128 -111.2939 277° West 370 426 32,000  Level Salt Lake Center
Sun 06:02:56 PM 40.6247 -111.4294 277° West 373 429 32,000  Level Salt Lake Center
Sun 06:03:58 PM 40.6372 -111.5667 277° West 376 433 32,000  Level Salt Lake Center
Sun 06:05:00 PM 40.6522 -111.7322 277° West 378 435 32,000  Level Salt Lake Center
Sun 06:06:02 PM 40.6650 -111.8703 277° West 378 435 32,000  Level Salt Lake Center
Sun 06:07:04 PM 40.6764 -112.0092 276° West 379 436 32,000  Level Salt Lake Center
Sun 06:08:05 PM 40.6886 -112.1492 277° West 383 441 32,000  Level Salt Lake Center
Sun 06:09:07 PM 40.7006 -112.2897 276° West 386 444 32,000  Level Salt Lake Center
Sun 06:10:09 PM 40.6906 -112.4267 265° West 373 429 32,000  Level Salt Lake Center
Sun 06:11:11 PM 40.6703 -112.5631 259° West 378 435 32,000  Level Salt Lake Center
Sun 06:12:13 PM 40.6494 -112.6989 259° West 381 438 32,000  Level Salt Lake Center
Sun 06:13:14 PM 40.6231 -112.8619 258° West 382 440 32,000  Level Salt Lake Center
Sun 06:14:16 PM 40.6006 -112.9986 258° West 381 438 32,000  Level Salt Lake Center
Sun 06:15:18 PM 40.5786 -113.1378 258° West 389 448 32,000  Level Salt Lake Center
Sun 06:16:20 PM 40.5583 -113.2747 259° West 382 440 32,000  Level Salt Lake Center
Sun 06:17:21 PM 40.5317 -113.4128 256° West 390 449 32,000  Level Salt Lake Center
Sun 06:18:23 PM 40.5094 -113.5533 258° West 392 451 32,000  Level Salt Lake Center
Sun 06:19:25 PM 40.4864 -113.6933 258° West 393 452 32,000  Level Salt Lake Center
Sun 06:20:26 PM 40.4583 -113.8625 258° West 397 457 32,000  Level Salt Lake Center
Sun 06:21:28 PM 40.4339 -114.0039 257° West 398 458 32,000  Level Salt Lake Center
Sun 06:22:30 PM 40.4103 -114.1464 258° West 400 460 32,000  Level Salt Lake Center
Sun 06:23:31 PM 40.3864 -114.2886 258° West 401 461 32,000  Level Salt Lake Center
Sun 06:24:33 PM 40.3608 -114.4308 257° West 401 461 32,000  Level Salt Lake Center
Sun 06:25:35 PM 40.3358 -114.5725 257° West 400 460 32,000  Level Salt Lake Center
Sun 06:26:36 PM 40.3119 -114.7153 258° West 402 463 32,000  Level Salt Lake Center
Sun 06:27:38 PM 40.2831 -114.8750 257° West 405 466 32,000  Level Salt Lake Center
Sun 06:28:39 PM 40.2683 -115.0133 262° West 403 464 32,000  Level Salt Lake Center
Sun 06:29:41 PM 40.2675 -115.1783 270° West 405 466 32,000  Level Salt Lake Center
Sun 06:30:43 PM 40.2614 -115.3200 267° West 406 467 32,000  Level Salt Lake Center
Sun 06:31:44 PM 40.2569 -115.4856 268° West 407 468 32,000  Level Salt Lake Center
Sun 06:32:46 PM 40.2508 -115.6261 267° West 406 467 32,000  Level Salt Lake Center
Sun 06:33:48 PM 40.2267 -115.7908 259° West 409 471 32,000  Level Salt Lake Center
Sun 06:34:49 PM 40.1903 -115.9297 251° West 417 480 32,000  Level Salt Lake Center
Sun 06:35:51 PM 40.1369 -116.0567 241° Southwest 416 479 32,000  Level Salt Lake Center
Sun 06:36:52 PM 40.0581 -116.2033 235° Southwest 432 497 32,000  Level Salt Lake Center
Sun 06:37:54 PM 40.0111 -116.3361 245° Southwest 420 483 32,000  Level Salt Lake Center
Sun 06:38:55 PM 39.9836 -116.4778 256° West 417 480 32,000  Level Salt Lake Center
Sun 06:39:57 PM 39.9519 -116.6425 256° West 417 480 32,000  Level Salt Lake Center
Sun 06:40:58 PM 39.9236 -116.7836 255° West 417 480 32,000  Level Salt Lake Center
Sun 06:42:00 PM 39.8908 -116.9497 256° West 420 483 32,000  Level Salt Lake Center
Sun 06:43:02 PM 39.8622 -117.0919 255° West 422 486 32,000  Level Salt Lake Center
Sun 06:44:03 PM 39.8322 -117.2336 255° West 421 484 32,000  Level Salt Lake Center
Sun 06:45:05 PM 39.7994 -117.3994 256° West 422 486 32,000  Level Salt Lake Center
Sun 06:46:06 PM 39.7725 -117.5367 256° West 424 488 32,000  Level Salt Lake Center
Sun 06:47:08 PM 39.7419 -117.6839 255° West 423 487 32,000  Level Salt Lake Center
Sun 06:48:09 PM 39.7125 -117.8300 255° West 420 483 32,000  Level Salt Lake Center
Sun 06:49:11 PM 39.6761 -118.0064 255° West 421 484 32,000  Level Salt Lake Center
Sun 06:50:12 PM 39.6458 -118.1533 255° West 423 487 32,000  Level Salt Lake Center
Sun 06:51:14 PM 39.6153 -118.2989 255° West 421 484 32,000  Level Salt Lake Center
Sun 06:52:15 PM 39.5847 -118.4428 255° West 417 480 32,000  Level Salt Lake Center
Sun 06:53:17 PM 39.5542 -118.5847 254° West 413 475 32,000  Level Salt Lake Center
Sun 06:54:18 PM 39.5244 -118.7253 255° West 412 474 32,000 -257 Level Salt Lake Center
Sun 06:55:37 PM 39.4828 -118.9197 255° West 411 473 31,400 -686 Descending Oakland Center
Sun 06:56:38 PM 39.4508 -119.0644 254° West 405 466 30,400 -976 Descending Oakland Center
Sun 06:57:40 PM 39.4233 -119.1911 254° West 390 449 29,400 -968 Descending Oakland Center
Sun 06:58:42 PM 39.3939 -119.3231 254° West 385 443 28,400 -1,073 Descending Oakland Center
Sun 06:59:43 PM 39.3586 -119.4814 254° West 383 441 27,200 -1,073 Descending Oakland Center
Sun 07:00:45 PM 39.3297 -119.6108 254° West 379 436 26,200 -976 Descending Oakland Center
Sun 07:01:46 PM 39.2992 -119.7419 253° West 381 438 25,200 -829 Descending Oakland Center
Sun 07:02:48 PM 39.2694 -119.8725 254° West 380 437 24,500 -823 Descending Oakland Center
Sun 07:03:50 PM 39.2414 -119.9981 254° West 369 425 23,500 -1,073 Descending Oakland Center
Sun 07:04:51 PM 39.2119 -120.1339 254° West 358 412 22,300 -1,073 Descending Oakland Center
Sun 07:05:53 PM 39.1822 -120.2528 252° West 351 404 21,300 -976 Descending Oakland Center
Sun 07:06:54 PM 39.1531 -120.3719 253° West 350 403 20,300 -976 Descending Oakland Center
Sun 07:07:56 PM 39.1236 -120.4872 252° West 342 394 19,300 -976 Descending Oakland Center
Sun 07:08:57 PM 39.0950 -120.6006 252° West 335 386 18,300 -976 Descending Oakland Center
Sun 07:09:59 PM 39.0664 -120.7142 252° West 334 384 17,300 -976 Descending Oakland Center
Sun 07:11:00 PM 39.0367 -120.8303 252° West 341 392 16,300 -927 Descending Oakland Center
Sun 07:12:02 PM 39.0000 -120.9694 251° West 344 396 15,400 -968 Descending Oakland Center
Sun 07:13:04 PM 38.9725 -121.0764 252° West 322 371 14,300 -1,046 Descending Oakland Center
Sun 07:13:51 PM 38.9500 -121.1667 252° West 305 351 13,500 -1,009 Descending Northern Cal TRACON
Sun 07:14:51 PM 38.9167 -121.2667 247° West 312 359 12,500 -994 Descending Northern Cal TRACON
Sun 07:16:52 PM 38.8833 -121.4833 259° West 312 359 10,500 -1,227 Descending Northern Cal TRACON
Sun 07:17:52 PM 38.8667 -121.5833 258° West 297 342 8,800 -1,800 Descending Northern Cal TRACON
Sun 07:18:52 PM 38.8333 -121.6667 243° Southwest 292 336 6,900 -1,900 Descending Northern Cal TRACON
Sun 07:19:52 PM 38.7500 -121.6833 189° South 274 315 5,000 -1,950 Descending Northern Cal TRACON
Sun 07:20:52 PM 38.6833 -121.6833 180° South 268 308 3,000 -1,850 Descending Northern Cal TRACON
Sun 07:21:52 PM 38.6000 -121.6667 171° South 272 313 1,300 -850 Descending Northern Cal TRACON
Sun 07:22:52 PM 38.6167 -121.6167 67° East 173 199 1,300 -211 Level Northern Cal TRACON
Sun 07:23:46 PM 38.6500 -121.5833 38° Northeast 155 178 900 -632 Descending Northern Cal TRACON
Sun 07:24:46 PM 38.6833 -121.5833 360° North 135 155 100 -800 Descending Northern Cal TRACON

Login

Don't have an account? Register now (free) for customized features, flight alerts, and more!